sensor_id;sensor_type;location;lat;lon;timestamp;pressure;altitude;pressure_sealevel;temperature;humidity
43553;BME280;29153;42.696;23.218;2023-04-01T00:01:58;93600.78;;;12.95;51.62
43553;BME280;29153;42.696;23.218;2023-04-01T00:04:25;93598.16;;;12.84;52.43
43553;BME280;29153;42.696;23.218;2023-04-01T00:06:53;93598.16;;;12.84;52.43
43553;BME280;29153;42.696;23.218;2023-04-01T00:09:20;93596.55;;;12.94;50.82
43553;BME280;29153;42.696;23.218;2023-04-01T00:11:47;93593.75;;;12.99;51.56
43553;BME280;29153;42.696;23.218;2023-04-01T00:14:15;93595.77;;;12.93;51.60
43553;BME280;29153;42.696;23.218;2023-04-01T00:16:43;93596.17;;;12.98;51.38
43553;BME280;29153;42.696;23.218;2023-04-01T00:19:10;93592.34;;;13.01;51.21
43553;BME280;29153;42.696;23.218;2023-04-01T00:21:38;93597.04;;;12.96;52.09
43553;BME280;29153;42.696;23.218;2023-04-01T00:24:05;93591.80;;;13.02;51.50
43553;BME280;29153;42.696;23.218;2023-04-01T00:26:33;93590.16;;;13.03;51.23
43553;BME280;29153;42.696;23.218;2023-04-01T00:29:00;93590.16;;;13.03;51.23
43553;BME280;29153;42.696;23.218;2023-04-01T00:31:28;93581.31;;;13.05;52.20
43553;BME280;29153;42.696;23.218;2023-04-01T00:33:56;93578.45;;;13.04;52.01
43553;BME280;29153;42.696;23.218;2023-04-01T00:36:23;93575.70;;;13.07;51.69
43553;BME280;29153;42.696;23.218;2023-04-01T00:38:51;93572.64;;;13.02;52.60
43553;BME280;29153;42.696;23.218;2023-04-01T00:41:19;93563.09;;;13.01;53.81
43553;BME280;29153;42.696;23.218;2023-04-01T00:43:50;93558.11;;;13.00;52.50
43553;BME280;29153;42.696;23.218;2023-04-01T00:46:19;93557.95;;;12.88;50.97
43553;BME280;29153;42.696;23.218;2023-04-01T00:48:51;93547.47;;;13.00;51.13
43553;BME280;29153;42.696;23.218;2023-04-01T00:51:25;93545.52;;;13.03;51.03
43553;BME280;29153;42.696;23.218;2023-04-01T00:53:54;93541.05;;;13.01;51.16
43553;BME280;29153;42.696;23.218;2023-04-01T00:56:30;93540.20;;;13.03;49.90
43553;BME280;29153;42.696;23.218;2023-04-01T00:58:56;93542.11;;;13.11;49.13
43553;BME280;29153;42.696;23.218;2023-04-01T01:01:24;93536.48;;;13.12;49.09
43553;BME280;29153;42.696;23.218;2023-04-01T01:03:52;93524.64;;;13.07;49.73
43553;BME280;29153;42.696;23.218;2023-04-01T01:06:39;93523.22;;;13.01;49.91
43553;BME280;29153;42.696;23.218;2023-04-01T01:11:51;93515.03;;;12.92;50.32
43553;BME280;29153;42.696;23.218;2023-04-01T01:14:45;93512.98;;;12.97;49.98
43553;BME280;29153;42.696;23.218;2023-04-01T01:17:13;93513.06;;;12.86;49.41
43553;BME280;29153;42.696;23.218;2023-04-01T01:19:51;93508.05;;;12.93;48.76
43553;BME280;29153;42.696;23.218;2023-04-01T01:28:19;93500.86;;;12.94;49.00
43553;BME280;29153;42.696;23.218;2023-04-01T01:31:02;93482.41;;;12.89;50.09
43553;BME280;29153;42.696;23.218;2023-04-01T01:36:04;93483.73;;;12.80;49.41
43553;BME280;29153;42.696;23.218;2023-04-01T01:38:34;93490.61;;;12.72;49.70
43553;BME280;29153;42.696;23.218;2023-04-01T01:41:04;93490.30;;;12.65;49.32
43553;BME280;29153;42.696;23.218;2023-04-01T01:43:36;93482.94;;;12.71;48.30
43553;BME280;29153;42.696;23.218;2023-04-01T01:46:06;93482.94;;;12.71;48.30
43553;BME280;29153;42.696;23.218;2023-04-01T01:48:34;93480.29;;;12.79;47.94
43553;BME280;29153;42.696;23.218;2023-04-01T01:51:05;93478.21;;;12.88;48.38
43553;BME280;29153;42.696;23.218;2023-04-01T01:53:33;93470.78;;;12.96;47.37
43553;BME280;29153;42.696;23.218;2023-04-01T01:56:00;93472.56;;;13.06;47.05
43553;BME280;29153;42.696;23.218;2023-04-01T01:58:36;93472.56;;;13.06;47.05
43553;BME280;29153;42.696;23.218;2023-04-01T02:01:07;93478.81;;;13.02;46.55
43553;BME280;29153;42.696;23.218;2023-04-01T02:03:36;93476.70;;;13.01;46.99
43553;BME280;29153;42.696;23.218;2023-04-01T02:06:08;93462.31;;;13.02;47.11
43553;BME280;29153;42.696;23.218;2023-04-01T02:08:49;93462.17;;;12.99;47.48
43553;BME280;29153;42.696;23.218;2023-04-01T02:11:10;93466.40;;;12.91;47.66
43553;BME280;29153;42.696;23.218;2023-04-01T02:16:21;93462.86;;;12.85;54.55
43553;BME280;29153;42.696;23.218;2023-04-01T02:18:50;93455.28;;;12.63;56.71
43553;BME280;29153;42.696;23.218;2023-04-01T02:21:21;93449.39;;;12.38;58.21
43553;BME280;29153;42.696;23.218;2023-04-01T02:23:51;93449.52;;;12.24;57.38
43553;BME280;29153;42.696;23.218;2023-04-01T02:26:22;93444.55;;;12.03;59.01
43553;BME280;29153;42.696;23.218;2023-04-01T02:28:50;93450.02;;;12.07;51.92
43553;BME280;29153;42.696;23.218;2023-04-01T02:31:18;93465.55;;;12.30;49.39
43553;BME280;29153;42.696;23.218;2023-04-01T02:33:47;93460.27;;;12.48;48.93
43553;BME280;29153;42.696;23.218;2023-04-01T02:36:16;93462.16;;;12.64;48.38
43553;BME280;29153;42.696;23.218;2023-04-01T02:38:45;93462.02;;;12.69;48.69
43553;BME280;29153;42.696;23.218;2023-04-01T02:41:13;93473.19;;;12.77;46.88
43553;BME280;29153;42.696;23.218;2023-04-01T02:43:41;93473.19;;;12.77;46.88
43553;BME280;29153;42.696;23.218;2023-04-01T02:46:08;93471.56;;;12.88;47.83
43553;BME280;29153;42.696;23.218;2023-04-01T02:48:36;93476.78;;;12.99;47.12
43553;BME280;29153;42.696;23.218;2023-04-01T02:51:03;93476.78;;;12.99;47.12
43553;BME280;29153;42.696;23.218;2023-04-01T02:53:31;93476.55;;;12.98;47.06
43553;BME280;29153;42.696;23.218;2023-04-01T02:55:58;93478.75;;;12.96;47.98
43553;BME280;29153;42.696;23.218;2023-04-01T02:58:26;93481.17;;;13.03;46.60
43553;BME280;29153;42.696;23.218;2023-04-01T03:00:53;93487.52;;;13.05;46.65
43553;BME280;29153;42.696;23.218;2023-04-01T03:03:21;93492.19;;;13.08;47.99
43553;BME280;29153;42.696;23.218;2023-04-01T03:05:48;93490.77;;;13.02;48.27
43553;BME280;29153;42.696;23.218;2023-04-01T03:08:16;93500.23;;;12.97;48.50
43553;BME280;29153;42.696;23.218;2023-04-01T03:10:43;93497.75;;;12.92;50.18
43553;BME280;29153;42.696;23.218;2023-04-01T03:13:11;93502.03;;;12.82;50.11
43553;BME280;29153;42.696;23.218;2023-04-01T03:15:38;93503.99;;;12.78;50.63
43553;BME280;29153;42.696;23.218;2023-04-01T03:18:06;93508.38;;;12.83;50.85
43553;BME280;29153;42.696;23.218;2023-04-01T03:20:33;93525.39;;;12.73;53.03
43553;BME280;29153;42.696;23.218;2023-04-01T03:23:01;93506.63;;;12.61;56.10
43553;BME280;29153;42.696;23.218;2023-04-01T03:25:28;93504.80;;;12.51;57.41
43553;BME280;29153;42.696;23.218;2023-04-01T03:27:56;93506.48;;;12.38;59.15
43553;BME280;29153;42.696;23.218;2023-04-01T03:30:26;93507.61;;;12.17;62.94
43553;BME280;29153;42.696;23.218;2023-04-01T03:32:54;93497.95;;;12.02;62.98
43553;BME280;29153;42.696;23.218;2023-04-01T03:35:21;93480.89;;;11.94;66.07
43553;BME280;29153;42.696;23.218;2023-04-01T03:37:50;93479.91;;;11.81;68.01
43553;BME280;29153;42.696;23.218;2023-04-01T03:40:17;93451.21;;;11.83;71.20
43553;BME280;29153;42.696;23.218;2023-04-01T03:42:45;93434.20;;;11.54;74.23
43553;BME280;29153;42.696;23.218;2023-04-01T03:45:13;93417.35;;;11.38;74.95
43553;BME280;29153;42.696;23.218;2023-04-01T03:47:40;93411.34;;;11.35;72.51
43553;BME280;29153;42.696;23.218;2023-04-01T03:50:08;93406.00;;;11.27;73.43
43553;BME280;29153;42.696;23.218;2023-04-01T03:52:36;93401.44;;;11.19;74.43
43553;BME280;29153;42.696;23.218;2023-04-01T03:55:04;93395.42;;;11.16;74.70
43553;BME280;29153;42.696;23.218;2023-04-01T03:57:31;93379.94;;;11.09;76.19
43553;BME280;29153;42.696;23.218;2023-04-01T03:59:59;93369.37;;;10.98;77.68
43553;BME280;29153;42.696;23.218;2023-04-01T04:02:26;93369.20;;;10.94;78.26
43553;BME280;29153;42.696;23.218;2023-04-01T04:04:54;93341.89;;;10.63;79.05
43553;BME280;29153;42.696;23.218;2023-04-01T04:07:21;93360.66;;;10.75;81.00
43553;BME280;29153;42.696;23.218;2023-04-01T04:09:48;93364.75;;;10.70;81.94
43553;BME280;29153;42.696;23.218;2023-04-01T04:12:16;93360.18;;;10.62;83.48
43553;BME280;29153;42.696;23.218;2023-04-01T04:14:43;93362.48;;;10.55;83.98
43553;BME280;29153;42.696;23.218;2023-04-01T04:17:11;93353.86;;;10.49;84.64
43553;BME280;29153;42.696;23.218;2023-04-01T04:19:40;93357.23;;;10.53;85.24
43553;BME280;29153;42.696;23.218;2023-04-01T04:22:08;93355.98;;;10.39;85.60
43553;BME280;29153;42.696;23.218;2023-04-01T04:24:35;93360.89;;;10.32;85.97
43553;BME280;29153;42.696;23.218;2023-04-01T04:27:04;93352.66;;;10.22;86.33
43553;BME280;29153;42.696;23.218;2023-04-01T04:29:31;93347.16;;;10.19;87.17
43553;BME280;29153;42.696;23.218;2023-04-01T04:31:59;93342.02;;;10.11;86.47
43553;BME280;29153;42.696;23.218;2023-04-01T04:34:26;93344.41;;;10.10;85.94
43553;BME280;29153;42.696;23.218;2023-04-01T04:36:54;93335.15;;;9.99;86.19
43553;BME280;29153;42.696;23.218;2023-04-01T04:39:21;93332.69;;;10.02;86.43
43553;BME280;29153;42.696;23.218;2023-04-01T04:41:48;93320.31;;;10.00;87.25
43553;BME280;29153;42.696;23.218;2023-04-01T04:44:16;93318.56;;;10.07;85.73
43553;BME280;29153;42.696;23.218;2023-04-01T04:46:44;93319.48;;;9.89;86.38
43553;BME280;29153;42.696;23.218;2023-04-01T04:49:12;93315.06;;;9.98;85.71
43553;BME280;29153;42.696;23.218;2023-04-01T04:51:40;93305.55;;;9.86;85.56
43553;BME280;29153;42.696;23.218;2023-04-01T04:54:08;93303.86;;;9.79;85.34
43553;BME280;29153;42.696;23.218;2023-04-01T04:56:36;93304.52;;;9.59;88.39
43553;BME280;29153;42.696;23.218;2023-04-01T04:59:03;93309.89;;;9.68;88.27
43553;BME280;29153;42.696;23.218;2023-04-01T05:01:31;93305.23;;;9.51;88.16
43553;BME280;29153;42.696;23.218;2023-04-01T05:03:59;93309.53;;;9.61;87.85
43553;BME280;29153;42.696;23.218;2023-04-01T05:06:27;93295.75;;;9.75;86.99
43553;BME280;29153;42.696;23.218;2023-04-01T05:08:56;93291.27;;;9.62;84.95
43553;BME280;29153;42.696;23.218;2023-04-01T05:11:24;93289.95;;;9.62;85.33
43553;BME280;29153;42.696;23.218;2023-04-01T05:13:52;93286.30;;;9.33;86.83
43553;BME280;29153;42.696;23.218;2023-04-01T05:16:20;93275.30;;;9.29;86.60
43553;BME280;29153;42.696;23.218;2023-04-01T05:18:48;93275.30;;;9.29;86.36
43553;BME280;29153;42.696;23.218;2023-04-01T05:21:16;93261.80;;;9.30;86.61
43553;BME280;29153;42.696;23.218;2023-04-01T05:23:43;93268.66;;;9.31;86.84
43553;BME280;29153;42.696;23.218;2023-04-01T05:26:13;93261.08;;;9.13;86.87
43553;BME280;29153;42.696;23.218;2023-04-01T05:28:41;93276.84;;;9.19;87.03
43553;BME280;29153;42.696;23.218;2023-04-01T05:31:09;93273.94;;;9.31;87.11
43553;BME280;29153;42.696;23.218;2023-04-01T05:33:36;93273.77;;;9.39;87.39
43553;BME280;29153;42.696;23.218;2023-04-01T05:36:12;93273.84;;;9.61;86.82
43553;BME280;29153;42.696;23.218;2023-04-01T05:38:40;93265.41;;;9.95;86.12
43553;BME280;29153;42.696;23.218;2023-04-01T05:41:09;93266.05;;;10.67;84.00
43553;BME280;29153;42.696;23.218;2023-04-01T05:43:37;93264.66;;;11.09;81.03
43553;BME280;29153;42.696;23.218;2023-04-01T05:46:05;93274.52;;;11.82;77.17
43553;BME280;29153;42.696;23.218;2023-04-01T05:48:34;93267.19;;;12.31;73.85
43553;BME280;29153;42.696;23.218;2023-04-01T05:51:02;93269.42;;;12.52;68.51
43553;BME280;29153;42.696;23.218;2023-04-01T05:53:31;93257.86;;;13.03;67.54
43553;BME280;29153;42.696;23.218;2023-04-01T05:56:03;93261.70;;;13.52;65.05
43553;BME280;29153;42.696;23.218;2023-04-01T05:58:30;93253.73;;;14.08;60.86
43553;BME280;29153;42.696;23.218;2023-04-01T06:01:06;93253.73;;;14.08;60.86
43553;BME280;29153;42.696;23.218;2023-04-01T06:03:34;93253.99;;;14.63;60.59
43553;BME280;29153;42.696;23.218;2023-04-01T06:06:02;93253.99;;;14.63;60.59
43553;BME280;29153;42.696;23.218;2023-04-01T06:08:33;93268.69;;;14.75;57.36
43553;BME280;29153;42.696;23.218;2023-04-01T06:11:26;93273.75;;;14.62;57.34
43553;BME280;29153;42.696;23.218;2023-04-01T06:24:44;93259.19;;;13.91;61.72
43553;BME280;29153;42.696;23.218;2023-04-01T06:27:16;93259.19;;;13.91;61.72
43553;BME280;29153;42.696;23.218;2023-04-01T06:30:02;93264.80;;;13.84;59.33
43553;BME280;29153;42.696;23.218;2023-04-01T06:33:01;93262.13;;;13.78;60.88
43553;BME280;29153;42.696;23.218;2023-04-01T06:35:35;93263.33;;;13.59;59.66
43553;BME280;29153;42.696;23.218;2023-04-01T06:41:17;93249.68;;;13.61;61.19
43553;BME280;29153;42.696;23.218;2023-04-01T06:43:52;93245.19;;;13.67;59.42
43553;BME280;29153;42.696;23.218;2023-04-01T06:46:38;93242.66;;;13.56;59.64
43553;BME280;29153;42.696;23.218;2023-04-01T06:52:36;93228.86;;;13.63;63.07
43553;BME280;29153;42.696;23.218;2023-04-01T06:57:51;93212.66;;;13.62;59.37
43553;BME280;29153;42.696;23.218;2023-04-01T07:00:34;93212.66;;;13.62;59.37
43553;BME280;29153;42.696;23.218;2023-04-01T07:03:10;93217.11;;;13.43;59.95
43553;BME280;29153;42.696;23.218;2023-04-01T07:05:33;93222.61;;;13.38;59.06
43553;BME280;29153;42.696;23.218;2023-04-01T07:08:04;93224.45;;;13.52;58.82
43553;BME280;29153;42.696;23.218;2023-04-01T07:10:53;93226.58;;;13.74;58.05
43553;BME280;29153;42.696;23.218;2023-04-01T07:14:04;93220.52;;;13.58;58.47
43553;BME280;29153;42.696;23.218;2023-04-01T07:18:38;93224.39;;;13.76;57.48
43553;BME280;29153;42.696;23.218;2023-04-01T07:21:10;93230.25;;;13.54;57.14
43553;BME280;29153;42.696;23.218;2023-04-01T07:23:42;93230.25;;;13.54;57.14
43553;BME280;29153;42.696;23.218;2023-04-01T07:26:22;93226.40;;;13.79;59.07
43553;BME280;29153;42.696;23.218;2023-04-01T07:28:47;93223.17;;;13.73;61.24
43553;BME280;29153;42.696;23.218;2023-04-01T07:48:35;93238.96;;;14.05;57.95
43553;BME280;29153;42.696;23.218;2023-04-01T07:59:24;93218.66;;;13.65;59.42
43553;BME280;29153;42.696;23.218;2023-04-01T08:05:03;93204.98;;;13.54;59.81
43553;BME280;29153;42.696;23.218;2023-04-01T08:10:28;93194.77;;;13.56;59.81
43553;BME280;29153;42.696;23.218;2023-04-01T08:13:24;93195.05;;;13.63;60.31
43553;BME280;29153;42.696;23.218;2023-04-01T08:21:35;93176.37;;;13.51;61.33
43553;BME280;29153;42.696;23.218;2023-04-01T08:24:11;93162.75;;;13.80;61.02
43553;BME280;29153;42.696;23.218;2023-04-01T08:26:46;93154.73;;;13.74;59.98
43553;BME280;29153;42.696;23.218;2023-04-01T08:29:16;93160.49;;;13.96;59.79
43553;BME280;29153;42.696;23.218;2023-04-01T08:31:54;93142.17;;;15.09;57.91
43553;BME280;29153;42.696;23.218;2023-04-01T08:34:42;93142.17;;;15.09;57.91
43553;BME280;29153;42.696;23.218;2023-04-01T08:37:28;93118.59;;;15.75;54.75
43553;BME280;29153;42.696;23.218;2023-04-01T08:39:54;93118.59;;;15.75;54.75
43553;BME280;29153;42.696;23.218;2023-04-01T08:42:46;93125.03;;;16.08;56.39
43553;BME280;29153;42.696;23.218;2023-04-01T08:56:33;93102.16;;;18.09;52.86
43553;BME280;29153;42.696;23.218;2023-04-01T09:02:04;93108.05;;;18.18;48.80
43553;BME280;29153;42.696;23.218;2023-04-01T09:04:55;93111.00;;;17.56;48.58
43553;BME280;29153;42.696;23.218;2023-04-01T09:12:54;93092.05;;;17.10;49.23
43553;BME280;29153;42.696;23.218;2023-04-01T09:29:19;93067.69;;;16.90;42.20
43553;BME280;29153;42.696;23.218;2023-04-01T09:34:55;93057.30;;;17.20;44.41
43553;BME280;29153;42.696;23.218;2023-04-01T09:37:46;93049.55;;;17.34;42.42
43553;BME280;29153;42.696;23.218;2023-04-01T09:43:28;93032.92;;;17.35;41.85
43553;BME280;29153;42.696;23.218;2023-04-01T09:56:58;92999.27;;;19.29;40.86
43553;BME280;29153;42.696;23.218;2023-04-01T10:02:54;92999.78;;;19.88;40.95
43553;BME280;29153;42.696;23.218;2023-04-01T10:10:58;92986.67;;;20.03;38.27
43553;BME280;29153;42.696;23.218;2023-04-01T10:30:51;92951.80;;;18.77;39.47
43553;BME280;29153;42.696;23.218;2023-04-01T10:36:28;92948.67;;;18.35;39.31
43553;BME280;29153;42.696;23.218;2023-04-01T10:39:04;92946.09;;;18.42;40.46
43553;BME280;29153;42.696;23.218;2023-04-01T10:44:26;92928.48;;;18.18;40.91
43553;BME280;29153;42.696;23.218;2023-04-01T10:47:12;92931.11;;;18.15;40.20
43553;BME280;29153;42.696;23.218;2023-04-01T10:55:04;92914.34;;;18.57;39.75
43553;BME280;29153;42.696;23.218;2023-04-01T11:22:20;92925.56;;;17.59;44.75
43553;BME280;29153;42.696;23.218;2023-04-01T11:25:16;92945.78;;;17.47;42.20
43553;BME280;29153;42.696;23.218;2023-04-01T11:33:25;93003.04;;;16.22;54.41
43553;BME280;29153;42.696;23.218;2023-04-01T11:41:43;93116.21;;;14.31;70.10
43553;BME280;29153;42.696;23.218;2023-04-01T11:44:19;93130.85;;;13.65;76.71
43553;BME280;29153;42.696;23.218;2023-04-01T11:50:10;93145.00;;;12.16;84.88
43553;BME280;29153;42.696;23.218;2023-04-01T11:52:55;93146.43;;;12.14;86.50
43553;BME280;29153;42.696;23.218;2023-04-01T12:01:27;93162.41;;;11.79;89.79
43553;BME280;29153;42.696;23.218;2023-04-01T12:12:59;93153.17;;;11.85;95.85
43553;BME280;29153;42.696;23.218;2023-04-01T12:15:43;93151.45;;;11.90;96.29
43553;BME280;29153;42.696;23.218;2023-04-01T12:18:33;93146.19;;;12.13;96.58
43553;BME280;29153;42.696;23.218;2023-04-01T12:21:11;93145.81;;;12.40;97.74
43553;BME280;29153;42.696;23.218;2023-04-01T12:24:00;93151.37;;;12.56;97.07
43553;BME280;29153;42.696;23.218;2023-04-01T12:32:14;93163.05;;;12.49;92.55
43553;BME280;29153;42.696;23.218;2023-04-01T12:34:45;93170.91;;;12.19;91.43
43553;BME280;29153;42.696;23.218;2023-04-01T12:37:39;93172.63;;;11.75;90.75
43553;BME280;29153;42.696;23.218;2023-04-01T12:40:30;93161.33;;;11.72;90.78
43553;BME280;29153;42.696;23.218;2023-04-01T12:43:05;93148.06;;;11.72;92.06
43553;BME280;29153;42.696;23.218;2023-04-01T12:45:32;93136.88;;;11.72;92.69
43553;BME280;29153;42.696;23.218;2023-04-01T12:56:53;93104.59;;;11.53;90.79
43553;BME280;29153;42.696;23.218;2023-04-01T12:59:42;93104.20;;;11.31;90.55
43553;BME280;29153;42.696;23.218;2023-04-01T13:05:10;93096.94;;;11.43;89.27
43553;BME280;29153;42.696;23.218;2023-04-01T13:07:42;93100.62;;;11.36;89.35
43553;BME280;29153;42.696;23.218;2023-04-01T13:13:18;93085.80;;;11.35;88.83
43553;BME280;29153;42.696;23.218;2023-04-01T13:32:42;93064.31;;;12.97;87.64
43553;BME280;29153;42.696;23.218;2023-04-01T13:43:23;93021.48;;;13.13;81.84
43553;BME280;29153;42.696;23.218;2023-04-01T13:54:59;92997.85;;;12.91;83.60
43553;BME280;29153;42.696;23.218;2023-04-01T14:00:10;92997.25;;;13.06;82.47
43553;BME280;29153;42.696;23.218;2023-04-01T14:02:50;92997.83;;;13.26;82.29
43553;BME280;29153;42.696;23.218;2023-04-01T14:08:17;92985.86;;;13.26;79.13
43553;BME280;29153;42.696;23.218;2023-04-01T14:13:34;92981.83;;;13.47;77.58
43553;BME280;29153;42.696;23.218;2023-04-01T14:16:22;92992.72;;;13.60;75.72
43553;BME280;29153;42.696;23.218;2023-04-01T14:21:43;92975.66;;;13.67;72.45
43553;BME280;29153;42.696;23.218;2023-04-01T14:24:23;92980.66;;;13.68;72.52
43553;BME280;29153;42.696;23.218;2023-04-01T14:27:09;92975.73;;;13.46;71.67
43553;BME280;29153;42.696;23.218;2023-04-01T14:32:30;92953.50;;;13.75;73.95
43553;BME280;29153;42.696;23.218;2023-04-01T14:40:26;92945.64;;;14.09;71.31
43553;BME280;29153;42.696;23.218;2023-04-01T14:53:41;92957.95;;;13.89;68.01
43553;BME280;29153;42.696;23.218;2023-04-01T14:56:08;92966.03;;;13.87;68.32
43553;BME280;29153;42.696;23.218;2023-04-01T14:58:50;92964.80;;;13.78;68.54
43553;BME280;29153;42.696;23.218;2023-04-01T15:01:42;92965.13;;;13.64;68.12
43553;BME280;29153;42.696;23.218;2023-04-01T15:18:39;92974.56;;;13.35;71.61
43553;BME280;29153;42.696;23.218;2023-04-01T15:21:12;92962.25;;;13.31;71.16
43553;BME280;29153;42.696;23.218;2023-04-01T15:27:41;92979.45;;;13.33;69.47
43553;BME280;29153;42.696;23.218;2023-04-01T15:29:46;92985.09;;;13.32;69.60
43553;BME280;29153;42.696;23.218;2023-04-01T15:32:19;92994.83;;;13.28;70.87
43553;BME280;29153;42.696;23.218;2023-04-01T15:40:27;93007.13;;;13.26;69.80
43553;BME280;29153;42.696;23.218;2023-04-01T15:42:59;93056.77;;;13.28;69.79
43553;BME280;29153;42.696;23.218;2023-04-01T15:45:35;93165.05;;;12.90;69.38
43553;BME280;29153;42.696;23.218;2023-04-01T15:59:39;93227.39;;;9.57;87.43
43553;BME280;29153;42.696;23.218;2023-04-01T16:02:34;93238.18;;;9.23;91.63
43553;BME280;29153;42.696;23.218;2023-04-01T16:05:25;93248.19;;;8.85;94.11
43553;BME280;29153;42.696;23.218;2023-04-01T16:13:41;93253.89;;;8.13;99.92
43553;BME280;29153;42.696;23.218;2023-04-01T16:16:23;93262.89;;;8.12;98.68
43553;BME280;29153;42.696;23.218;2023-04-01T16:19:36;93266.62;;;8.09;99.37
43553;BME280;29153;42.696;23.218;2023-04-01T16:21:36;93280.59;;;7.93;100.00
43553;BME280;29153;42.696;23.218;2023-04-01T16:24:31;93277.09;;;7.98;100.00
43553;BME280;29153;42.696;23.218;2023-04-01T16:29:53;93279.66;;;8.03;98.48
43553;BME280;29153;42.696;23.218;2023-04-01T16:32:34;93288.61;;;8.04;98.48
43553;BME280;29153;42.696;23.218;2023-04-01T16:37:50;93301.28;;;8.02;98.00
43553;BME280;29153;42.696;23.218;2023-04-01T16:40:24;93311.83;;;8.02;98.16
43553;BME280;29153;42.696;23.218;2023-04-01T16:42:53;93314.54;;;7.97;98.89
43553;BME280;29153;42.696;23.218;2023-04-01T16:50:39;93320.53;;;8.03;97.96
43553;BME280;29153;42.696;23.218;2023-04-01T16:53:16;93324.76;;;8.01;99.00
43553;BME280;29153;42.696;23.218;2023-04-01T16:55:50;93325.20;;;8.08;98.69
43553;BME280;29153;42.696;23.218;2023-04-01T16:58:26;93339.52;;;8.02;98.72
43553;BME280;29153;42.696;23.218;2023-04-01T17:00:53;93336.51;;;8.09;99.60
43553;BME280;29153;42.696;23.218;2023-04-01T17:03:26;93335.17;;;8.11;97.72
43553;BME280;29153;42.696;23.218;2023-04-01T17:05:57;93346.20;;;8.13;97.32
43553;BME280;29153;42.696;23.218;2023-04-01T17:08:46;93357.08;;;8.09;96.27
43553;BME280;29153;42.696;23.218;2023-04-01T17:11:18;93356.73;;;8.16;95.99
43553;BME280;29153;42.696;23.218;2023-04-01T17:16:46;93394.64;;;8.01;97.50
43553;BME280;29153;42.696;23.218;2023-04-01T17:27:14;93382.54;;;7.79;96.59
43553;BME280;29153;42.696;23.218;2023-04-01T17:32:47;93377.36;;;7.53;97.43
43553;BME280;29153;42.696;23.218;2023-04-01T17:35:27;93384.95;;;7.57;96.92
43553;BME280;29153;42.696;23.218;2023-04-01T17:40:59;93383.43;;;7.51;96.71
43553;BME280;29153;42.696;23.218;2023-04-01T17:43:38;93380.16;;;7.38;98.85
43553;BME280;29153;42.696;23.218;2023-04-01T17:48:54;93394.16;;;7.36;98.72
43553;BME280;29153;42.696;23.218;2023-04-01T17:51:25;93395.05;;;7.26;99.71
43553;BME280;29153;42.696;23.218;2023-04-01T17:54:06;93395.45;;;7.12;100.00
43553;BME280;29153;42.696;23.218;2023-04-01T17:59:37;93403.44;;;7.04;99.94
43553;BME280;29153;42.696;23.218;2023-04-01T18:02:24;93401.15;;;6.95;100.00
43553;BME280;29153;42.696;23.218;2023-04-01T18:05:01;93403.44;;;7.04;99.77
43553;BME280;29153;42.696;23.218;2023-04-01T18:11:25;93417.09;;;7.06;98.71
43553;BME280;29153;42.696;23.218;2023-04-01T18:16:08;93431.13;;;7.25;97.34
43553;BME280;29153;42.696;23.218;2023-04-01T18:21:32;93431.48;;;7.43;97.88
43553;BME280;29153;42.696;23.218;2023-04-01T18:27:04;93442.58;;;7.40;98.36
43553;BME280;29153;42.696;23.218;2023-04-01T18:29:40;93451.59;;;7.33;98.35
43553;BME280;29153;42.696;23.218;2023-04-01T18:32:21;93461.06;;;7.35;98.44
43553;BME280;29153;42.696;23.218;2023-04-01T18:37:53;93465.37;;;7.52;98.59
43553;BME280;29153;42.696;23.218;2023-04-01T18:40:41;93462.83;;;7.42;99.92
43553;BME280;29153;42.696;23.218;2023-04-01T18:43:26;93460.95;;;7.45;100.00
43553;BME280;29153;42.696;23.218;2023-04-01T18:45:58;93463.05;;;7.45;100.00
43553;BME280;29153;42.696;23.218;2023-04-01T18:48:51;93463.05;;;7.48;100.00
43553;BME280;29153;42.696;23.218;2023-04-01T18:51:41;93460.64;;;7.49;100.00
43553;BME280;29153;42.696;23.218;2023-04-01T18:54:26;93461.06;;;7.58;99.77
43553;BME280;29153;42.696;23.218;2023-04-01T18:57:07;93465.55;;;7.60;96.83
43553;BME280;29153;42.696;23.218;2023-04-01T19:04:56;93477.92;;;7.60;96.44
43553;BME280;29153;42.696;23.218;2023-04-01T19:07:45;93477.56;;;7.69;96.20
43553;BME280;29153;42.696;23.218;2023-04-01T19:10:31;93481.47;;;7.74;96.14
43553;BME280;29153;42.696;23.218;2023-04-01T19:15:39;93484.33;;;7.77;94.96
43553;BME280;29153;42.696;23.218;2023-04-01T19:21:07;93492.55;;;7.71;92.45
43553;BME280;29153;42.696;23.218;2023-04-01T19:26:36;93501.55;;;7.70;90.28
43553;BME280;29153;42.696;23.218;2023-04-01T19:32:14;93503.14;;;7.68;89.28
43553;BME280;29153;42.696;23.218;2023-04-01T19:37:25;93512.19;;;7.60;90.21
43553;BME280;29153;42.696;23.218;2023-04-01T19:40:04;93511.66;;;7.58;89.81
43553;BME280;29153;42.696;23.218;2023-04-01T19:42:54;93517.45;;;7.60;90.76
43553;BME280;29153;42.696;23.218;2023-04-01T19:51:06;93519.05;;;7.58;92.15
43553;BME280;29153;42.696;23.218;2023-04-01T19:56:19;93528.48;;;7.62;90.23
43553;BME280;29153;42.696;23.218;2023-04-01T20:01:41;93532.44;;;7.62;91.28
43553;BME280;29153;42.696;23.218;2023-04-01T20:04:14;93524.61;;;7.57;91.98
43553;BME280;29153;42.696;23.218;2023-04-01T20:06:55;93524.05;;;7.60;92.24
43553;BME280;29153;42.696;23.218;2023-04-01T20:15:19;93515.61;;;7.60;90.15
43553;BME280;29153;42.696;23.218;2023-04-01T20:17:38;93523.21;;;7.64;87.70
43553;BME280;29153;42.696;23.218;2023-04-01T20:25:30;93528.70;;;7.68;84.16
43553;BME280;29153;42.696;23.218;2023-04-01T20:31:22;93533.09;;;7.77;84.75
43553;BME280;29153;42.696;23.218;2023-04-01T20:36:51;93529.40;;;7.78;83.65
43553;BME280;29153;42.696;23.218;2023-04-01T20:39:20;93524.48;;;7.67;83.86
43553;BME280;29153;42.696;23.218;2023-04-01T20:44:36;93542.45;;;7.62;82.98